createdAt,value
2023-05-15T15:56:32.504Z,6.50
2023-05-15T15:56:42.485Z,6.30
2023-05-15T15:56:51.480Z,6.90
2023-05-15T15:57:01.554Z,7.10
2023-05-15T15:57:11.885Z,7.70
2023-05-15T15:57:25.454Z,7.10
2023-05-15T15:57:32.719Z,6.90
2023-05-15T15:57:43.007Z,7.10
2023-05-15T15:57:52.170Z,8.20
2023-05-15T15:58:02.451Z,8.30
2023-05-15T15:58:12.680Z,8.10
2023-05-15T15:58:32.777Z,7.40
2023-05-15T15:58:42.968Z,8.50
2023-05-15T15:58:53.053Z,8.10
2023-05-15T15:59:03.199Z,8.10
2023-05-15T16:06:04.104Z,8.20
2023-05-15T16:06:14.864Z,9.30
2023-05-15T16:06:25.797Z,8.40
2023-05-15T16:06:35.331Z,11.60
2023-05-15T16:06:45.531Z,12.30
2023-05-15T16:06:55.716Z,12.50
2023-05-15T16:07:05.742Z,8.60
2023-05-15T16:07:16.662Z,6.90
2023-05-15T16:07:25.975Z,13.00
2023-05-15T16:07:36.112Z,15.10
2023-05-15T16:07:46.168Z,30.30
2023-05-15T16:07:56.346Z,37.00
2023-05-15T16:08:06.428Z,34.20
2023-05-15T16:08:26.508Z,24.10
2023-05-15T16:08:36.904Z,37.20
2023-05-15T16:08:46.901Z,37.80
2023-05-15T16:08:57.199Z,17.60
2023-05-15T16:09:07.185Z,4.60
2023-05-15T16:09:18.056Z,4.30
2023-05-15T16:09:27.526Z,4.80
2023-05-15T16:09:37.552Z,5.40
2023-05-15T16:09:53.944Z,5.80
2023-05-15T16:10:11.765Z,6.30
2023-05-15T16:10:40.270Z,5.10
2023-05-15T16:10:51.278Z,5.10
2023-05-15T16:11:01.513Z,5.10
2023-05-15T16:11:11.627Z,6.60
2023-05-15T16:11:21.889Z,7.00
2023-05-15T16:11:31.694Z,7.50
2023-05-15T16:11:41.860Z,5.60
2023-05-15T16:11:52.116Z,5.60
2023-05-15T16:12:02.442Z,5.00
2023-05-15T16:12:12.441Z,5.30
2023-05-15T16:12:23.326Z,5.30
2023-05-15T16:12:32.491Z,6.00
2023-05-15T16:12:43.024Z,5.70
2023-05-15T16:12:52.821Z,5.90
2023-05-15T16:13:03.037Z,5.50
2023-05-15T16:13:13.205Z,5.90
2023-05-15T16:13:34.940Z,5.10
2023-05-15T16:13:43.558Z,5.00
2023-05-15T16:13:54.226Z,5.30
2023-05-15T16:14:04.002Z,5.40
2023-05-15T16:14:13.862Z,5.50
2023-05-15T16:14:24.192Z,5.80
2023-05-15T16:14:44.273Z,6.00
2023-05-15T16:14:55.317Z,5.80
2023-05-15T16:15:19.925Z,5.80
2023-05-15T16:15:28.330Z,5.90
2023-05-15T16:15:34.474Z,5.90
2023-05-15T16:15:44.668Z,6.00
2023-05-15T16:15:54.753Z,5.80
2023-05-15T16:16:05.012Z,6.20
2023-05-15T16:16:15.187Z,6.80
2023-05-15T16:16:35.365Z,8.10
2023-05-15T16:16:45.585Z,8.40
2023-05-15T16:16:55.633Z,8.30
2023-05-15T16:17:06.959Z,6.80
2023-05-15T16:17:15.777Z,5.30
2023-05-15T16:17:25.940Z,4.90
2023-05-15T16:17:35.944Z,4.60
2023-05-15T16:17:46.012Z,4.50
2023-05-15T16:17:56.271Z,4.20
2023-05-15T16:18:07.522Z,4.10
2023-05-15T16:18:16.534Z,4.10
2023-05-15T16:18:26.666Z,4.60
2023-05-15T16:18:37.386Z,5.50
2023-05-15T16:18:46.838Z,6.50
2023-05-15T16:18:56.889Z,7.10
2023-05-15T16:19:17.243Z,14.40
2023-05-15T16:19:27.589Z,13.60
2023-05-15T16:19:37.586Z,13.80
2023-05-15T16:19:48.210Z,5.40
2023-05-15T16:19:57.728Z,5.30
2023-05-15T16:20:07.801Z,4.80
2023-05-15T16:20:17.752Z,5.40
2023-05-15T16:20:29.040Z,5.10
2023-05-15T16:20:38.179Z,5.00
2023-05-15T16:20:58.432Z,4.60
2023-05-15T16:21:08.716Z,4.60
2023-05-15T16:21:18.701Z,4.50
2023-05-15T16:21:28.691Z,5.70
2023-05-15T16:21:39.045Z,6.70
2023-05-15T16:21:49.086Z,7.70
2023-05-15T16:21:59.836Z,8.90
2023-05-15T16:22:10.300Z,8.80
2023-05-15T16:22:19.347Z,11.40
2023-05-15T16:22:29.540Z,8.80
2023-05-15T16:22:39.665Z,7.90
2023-05-15T16:22:49.850Z,6.30
2023-05-15T16:23:00.916Z,11.30
2023-05-15T16:23:20.460Z,36.00
2023-05-15T16:23:31.405Z,34.20
2023-05-15T16:23:40.433Z,16.50
2023-05-15T16:23:51.368Z,10.70
2023-05-15T16:24:00.647Z,6.20
2023-05-15T16:24:10.766Z,4.40
2023-05-15T16:24:20.899Z,5.40
2023-05-15T16:24:42.155Z,6.50
2023-05-15T16:24:51.474Z,7.10
2023-05-15T16:25:01.698Z,6.60
2023-05-15T16:25:12.347Z,8.40
2023-05-15T16:25:21.717Z,8.40
2023-05-15T16:25:31.798Z,9.10
2023-05-15T16:25:52.173Z,12.00
2023-05-15T16:26:02.722Z,16.10
2023-05-15T16:26:13.209Z,22.90
2023-05-15T16:26:23.363Z,29.70
2023-05-15T16:26:32.699Z,25.00
2023-05-15T16:26:42.743Z,22.20
2023-05-15T16:26:52.955Z,18.00
2023-05-15T16:27:03.143Z,24.30
2023-05-15T16:27:23.351Z,12.60
2023-05-15T16:27:33.451Z,4.30
2023-05-15T16:27:43.448Z,4.70
2023-05-15T16:27:53.573Z,5.00
2023-05-15T16:28:03.774Z,5.40
2023-05-15T16:28:13.864Z,5.10
2023-05-15T16:28:24.125Z,4.80
2023-05-15T16:28:34.451Z,4.90
2023-05-15T16:28:44.366Z,5.00
2023-05-15T16:28:54.433Z,5.00
2023-05-15T16:29:04.609Z,4.10
2023-05-15T16:29:16.774Z,4.20
2023-05-15T16:29:24.828Z,4.30
2023-05-15T16:29:38.921Z,4.80
2023-05-15T16:29:44.996Z,4.90
2023-05-15T16:29:55.399Z,4.80
2023-05-15T16:30:07.915Z,5.00
2023-05-15T16:30:33.636Z,5.60
2023-05-15T16:30:52.944Z,5.70
2023-05-15T16:30:59.092Z,5.90
2023-05-15T16:31:09.148Z,5.50
2023-05-15T16:31:19.444Z,5.00
2023-05-15T16:31:29.874Z,4.60
2023-05-15T16:31:40.064Z,4.40
2023-05-15T16:32:00.812Z,4.00
2023-05-15T16:32:09.961Z,4.00
2023-05-15T16:32:20.057Z,4.50
2023-05-15T16:32:30.776Z,4.80
2023-05-15T16:32:40.215Z,4.80
2023-05-15T16:32:50.309Z,4.40
2023-05-15T16:33:01.489Z,4.10
2023-05-15T16:33:10.647Z,5.30
2023-05-15T16:33:20.699Z,10.60
2023-05-15T16:33:40.878Z,32.70
2023-05-15T16:33:51.111Z,29.40
2023-05-15T16:34:03.517Z,15.80
2023-05-15T16:34:11.214Z,9.80
2023-05-15T16:34:21.317Z,9.40
2023-05-15T16:34:31.425Z,9.70
2023-05-15T16:34:41.890Z,8.80
2023-05-15T16:34:51.843Z,8.60
2023-05-15T16:35:02.971Z,8.30
2023-05-15T16:35:11.976Z,7.70
2023-05-15T16:35:22.071Z,7.00
2023-05-15T16:35:32.395Z,6.00
2023-05-15T16:35:42.508Z,5.70
2023-05-15T16:35:53.566Z,5.30
2023-05-15T16:36:12.866Z,5.10
2023-05-15T16:36:23.945Z,4.70
2023-05-15T16:36:33.109Z,4.50
2023-05-15T16:36:43.434Z,4.30
2023-05-15T16:36:53.381Z,4.40
2023-05-15T16:37:03.503Z,4.50
2023-05-15T16:37:13.663Z,4.50
2023-05-15T16:37:33.971Z,4.50
2023-05-15T16:37:44.808Z,4.50
2023-05-15T16:37:55.226Z,4.50
2023-05-15T16:38:04.355Z,4.80
2023-05-15T16:38:14.551Z,5.10
2023-05-15T16:38:24.638Z,5.50
2023-05-15T16:38:34.660Z,7.50
2023-05-15T16:38:53.840Z,10.00
2023-05-15T16:39:05.021Z,8.20
2023-05-15T16:39:15.141Z,6.80
2023-05-15T16:39:25.516Z,6.00
2023-05-15T16:39:35.333Z,6.20
2023-05-15T16:39:45.717Z,6.20
2023-05-15T16:39:56.654Z,6.80
2023-05-15T16:40:05.999Z,7.80
2023-05-15T16:40:15.937Z,8.70
2023-05-15T16:40:26.205Z,8.10
2023-05-15T16:40:36.091Z,6.90
2023-05-15T16:40:46.220Z,5.90
2023-05-15T16:41:05.439Z,5.30
2023-05-15T16:41:17.619Z,8.40
2023-05-15T16:41:26.829Z,13.00
2023-05-15T16:41:37.946Z,12.80
2023-05-15T16:41:46.984Z,8.90
2023-05-15T16:41:57.143Z,5.70
2023-05-15T16:42:09.292Z,9.10
2023-05-15T16:42:27.674Z,8.90
2023-05-15T16:42:37.740Z,7.30
2023-05-15T16:46:26.258Z,5.30
2023-05-15T16:46:37.359Z,5.60
2023-05-15T16:46:47.557Z,5.90
2023-05-15T16:46:57.691Z,5.50
2023-05-15T16:47:07.864Z,5.70
2023-05-15T16:47:17.831Z,5.60
2023-05-15T16:47:27.959Z,6.30
2023-05-15T16:47:38.141Z,6.20
2023-05-15T16:47:49.181Z,6.40
2023-05-15T16:47:58.743Z,6.20
2023-05-15T16:48:08.366Z,8.80
2023-05-15T16:48:18.381Z,8.70
2023-05-15T16:48:28.621Z,8.40
2023-05-15T16:48:38.848Z,5.70
2023-05-15T16:48:59.137Z,8.00
2023-05-15T16:49:09.242Z,8.60
2023-05-15T16:49:19.195Z,8.10
2023-05-15T16:49:30.323Z,5.60
2023-05-15T16:49:40.521Z,4.90
2023-05-15T16:49:50.510Z,4.60
2023-05-15T16:49:59.818Z,4.80
2023-05-15T16:50:09.874Z,5.40
2023-05-15T16:50:20.009Z,5.70
2023-05-15T16:50:40.372Z,5.80
2023-05-15T16:50:50.444Z,7.40
2023-05-15T16:51:01.302Z,9.10
2023-05-15T16:51:10.692Z,9.70
2023-05-15T16:51:20.839Z,7.90
2023-05-15T16:51:30.845Z,6.50
2023-05-15T16:51:41.169Z,5.60
2023-05-15T16:51:51.102Z,5.60
2023-05-15T16:52:01.297Z,5.70
2023-05-15T16:52:11.999Z,5.60
2023-05-15T16:52:21.434Z,5.20
2023-05-15T16:52:32.291Z,4.90
2023-05-15T16:52:41.655Z,5.10
2023-05-15T16:52:51.794Z,5.30
2023-05-15T16:53:02.169Z,5.50
2023-05-15T16:53:12.277Z,5.60
2023-05-15T16:53:23.057Z,5.40
2023-05-15T16:53:32.380Z,5.20
2023-05-15T16:53:42.554Z,5.30
2023-05-15T16:53:52.586Z,5.60
2023-05-15T16:54:02.592Z,5.70
2023-05-15T16:54:12.787Z,6.00
2023-05-15T16:54:23.732Z,6.40
2023-05-15T16:54:32.965Z,6.60
2023-05-15T16:54:43.063Z,6.70
2023-05-15T16:54:53.513Z,6.90
2023-05-15T16:55:03.278Z,6.80
2023-05-15T16:55:13.411Z,7.00
2023-05-15T16:55:23.713Z,6.70
2023-05-15T16:55:34.716Z,7.90
2023-05-15T16:55:43.918Z,7.90
2023-05-15T16:55:53.989Z,8.20
2023-05-15T16:56:04.008Z,7.70
2023-05-15T16:56:14.058Z,7.50
2023-05-15T16:56:24.238Z,7.30
2023-05-15T16:56:44.488Z,7.50
2023-05-15T16:56:55.856Z,7.20
2023-05-15T16:57:04.962Z,8.50
2023-05-15T16:57:14.984Z,8.70
2023-05-15T16:57:25.073Z,8.70
2023-05-15T16:57:36.044Z,7.60
2023-05-15T16:57:45.256Z,8.50
2023-05-15T16:58:05.589Z,13.20
2023-05-15T16:58:15.752Z,13.50
2023-05-15T16:58:26.093Z,13.70
2023-05-15T16:58:36.713Z,8.00
2023-05-15T16:58:46.021Z,8.20
2023-05-15T16:58:56.158Z,9.00
2023-05-15T16:59:06.316Z,14.20
2023-05-15T16:59:16.443Z,12.90
2023-05-15T16:59:26.536Z,11.60
2023-05-15T16:59:47.724Z,7.40
2023-05-15T16:59:56.934Z,7.70
2023-05-15T17:00:06.891Z,6.80
